createdAt,value
2023-05-17T00:01:42.823Z,9.35
2023-05-17T00:04:09.088Z,9.36
2023-05-17T00:06:35.402Z,9.39
2023-05-17T00:09:01.622Z,9.35
2023-05-17T00:11:27.823Z,9.31
2023-05-17T00:13:54.024Z,9.27
2023-05-17T00:16:20.201Z,9.17
2023-05-17T00:18:46.659Z,9.11
2023-05-17T00:21:12.896Z,9.06
2023-05-17T00:23:39.096Z,9.05
2023-05-17T00:26:05.267Z,9.00
2023-05-17T00:28:31.638Z,8.93
2023-05-17T00:30:57.842Z,8.92
2023-05-17T00:33:24.035Z,8.78
2023-05-17T00:35:50.222Z,8.79
2023-05-17T00:38:16.456Z,8.73
2023-05-17T00:40:42.674Z,8.70
2023-05-17T00:43:08.879Z,8.67
2023-05-17T00:45:35.106Z,8.59
2023-05-17T00:48:01.328Z,8.58
2023-05-17T00:50:27.638Z,8.59
2023-05-17T00:52:53.845Z,8.58
2023-05-17T00:55:20.036Z,8.56
2023-05-17T00:57:46.273Z,8.51
2023-05-17T01:00:12.535Z,8.48
2023-05-17T01:02:38.809Z,8.48
2023-05-17T01:05:05.077Z,8.46
2023-05-17T01:07:31.329Z,8.47
2023-05-17T01:09:57.604Z,8.41
2023-05-17T01:12:23.786Z,8.35
2023-05-17T01:14:49.974Z,8.37
2023-05-17T01:17:16.233Z,8.33
2023-05-17T01:19:42.539Z,8.28
2023-05-17T01:22:08.814Z,8.27
2023-05-17T01:24:35.068Z,8.22
2023-05-17T01:27:01.308Z,8.18
2023-05-17T01:29:27.550Z,8.19
2023-05-17T01:31:53.783Z,8.15
2023-05-17T01:34:19.943Z,8.17
2023-05-17T01:36:46.131Z,8.19
2023-05-17T01:39:12.326Z,8.19
2023-05-17T01:41:38.497Z,8.16
2023-05-17T01:44:04.737Z,8.15
2023-05-17T01:46:30.976Z,8.15
2023-05-17T01:48:57.276Z,8.18
2023-05-17T01:51:23.545Z,8.13
2023-05-17T01:53:49.720Z,8.07
2023-05-17T01:56:15.997Z,8.03
2023-05-17T01:58:42.195Z,8.01
2023-05-17T02:01:08.379Z,8.01
2023-05-17T02:03:34.678Z,7.96
2023-05-17T02:06:00.926Z,7.99
2023-05-17T02:08:27.127Z,7.94
2023-05-17T02:10:53.357Z,7.94
2023-05-17T02:13:19.591Z,7.94
2023-05-17T02:15:45.793Z,7.88
2023-05-17T02:18:12.149Z,7.91
2023-05-17T02:20:38.453Z,7.88
2023-05-17T02:23:04.689Z,7.93
2023-05-17T02:25:31.047Z,7.91
2023-05-17T02:27:57.424Z,7.93
2023-05-17T02:30:23.639Z,7.92
2023-05-17T02:32:49.946Z,7.93
2023-05-17T02:35:16.183Z,7.95
2023-05-17T02:37:42.346Z,7.89
2023-05-17T02:40:08.617Z,7.87
2023-05-17T02:42:34.856Z,7.85
2023-05-17T02:45:01.066Z,7.87
2023-05-17T02:47:27.303Z,7.87
2023-05-17T02:49:53.533Z,7.88
2023-05-17T02:52:19.754Z,7.87
2023-05-17T02:54:46.014Z,7.83
2023-05-17T02:57:12.187Z,7.85
2023-05-17T02:59:38.392Z,7.82
2023-05-17T03:02:04.648Z,7.82
2023-05-17T03:04:31.032Z,7.77
2023-05-17T03:06:57.230Z,7.73
2023-05-17T03:09:23.424Z,7.66
2023-05-17T03:11:49.628Z,7.63
2023-05-17T03:14:15.789Z,7.57
2023-05-17T03:16:41.976Z,7.54
2023-05-17T03:19:08.332Z,7.55
2023-05-17T03:21:35.572Z,7.57
2023-05-17T03:24:01.778Z,7.58
2023-05-17T03:26:28.001Z,7.58
2023-05-17T03:28:54.186Z,7.60
2023-05-17T03:31:20.368Z,7.60
2023-05-17T03:33:46.681Z,7.58
2023-05-17T03:36:12.952Z,7.56
2023-05-17T03:38:39.135Z,7.58
2023-05-17T03:41:05.475Z,7.57
2023-05-17T03:43:31.718Z,7.57
2023-05-17T03:45:57.920Z,7.56
2023-05-17T03:48:24.218Z,7.55
2023-05-17T03:50:50.510Z,7.55
2023-05-17T03:53:16.668Z,7.56
2023-05-17T03:55:42.859Z,7.55
2023-05-17T03:58:09.016Z,7.57
2023-05-17T04:00:35.184Z,7.58
2023-05-17T04:03:01.507Z,7.63
2023-05-17T04:05:28.012Z,7.62
2023-05-17T04:07:54.420Z,7.66
2023-05-17T04:10:20.623Z,7.64
2023-05-17T04:12:46.821Z,7.61
2023-05-17T04:15:13.021Z,7.63
2023-05-17T04:17:39.291Z,7.68
2023-05-17T04:20:05.576Z,7.71
2023-05-17T04:22:31.797Z,7.79
2023-05-17T04:24:58.031Z,7.82
2023-05-17T04:27:24.258Z,7.86
2023-05-17T04:29:50.477Z,7.91
2023-05-17T04:32:16.665Z,7.95
2023-05-17T04:34:42.826Z,7.97
2023-05-17T04:37:09.053Z,8.02
2023-05-17T04:39:35.355Z,8.10
2023-05-17T04:42:01.527Z,8.15
2023-05-17T04:44:27.812Z,8.15
2023-05-17T04:46:54.001Z,8.18
2023-05-17T04:49:20.256Z,8.23
2023-05-17T04:51:46.470Z,8.29
2023-05-17T04:54:12.684Z,8.31
2023-05-17T04:56:38.910Z,8.34
2023-05-17T04:59:05.134Z,8.37
2023-05-17T05:01:31.331Z,8.38
2023-05-17T05:03:57.605Z,8.46
2023-05-17T05:06:23.857Z,8.49
2023-05-17T05:08:50.067Z,8.56
2023-05-17T05:11:16.287Z,8.59
2023-05-17T05:13:42.543Z,8.65
2023-05-17T05:16:08.757Z,8.75
2023-05-17T05:18:35.057Z,8.84
2023-05-17T05:21:01.304Z,8.87
2023-05-17T05:23:34.649Z,9.01
2023-05-17T05:26:00.853Z,9.02
2023-05-17T05:28:27.033Z,9.18
2023-05-17T05:30:53.220Z,9.34
2023-05-17T05:33:19.555Z,9.53
2023-05-17T05:35:45.852Z,9.76
2023-05-17T05:38:15.171Z,9.92
2023-05-17T05:40:41.353Z,10.12
2023-05-17T05:43:07.581Z,10.22
2023-05-17T05:45:33.780Z,10.36
2023-05-17T05:48:00.049Z,10.52
2023-05-17T05:50:26.293Z,10.82
2023-05-17T05:52:53.475Z,11.01
2023-05-17T05:55:22.390Z,11.22
2023-05-17T05:57:48.584Z,11.44
2023-05-17T06:00:14.862Z,11.50
2023-05-17T06:02:41.059Z,11.71
2023-05-17T06:05:07.279Z,11.77
2023-05-17T06:07:33.427Z,12.03
2023-05-17T06:09:59.601Z,12.05
2023-05-17T06:12:25.794Z,12.09
2023-05-17T06:14:51.989Z,12.37
2023-05-17T06:17:18.186Z,12.49
2023-05-17T06:19:44.412Z,12.59
2023-05-17T06:22:10.706Z,12.70
2023-05-17T06:24:36.940Z,12.68
2023-05-17T06:27:03.110Z,12.71
2023-05-17T06:29:32.443Z,12.58
2023-05-17T06:31:58.593Z,12.85
2023-05-17T06:34:24.826Z,12.84
2023-05-17T06:36:51.060Z,12.95
2023-05-17T06:39:17.416Z,13.31
2023-05-17T06:41:43.677Z,13.44
2023-05-17T06:44:09.898Z,13.25
2023-05-17T06:46:36.114Z,13.29
2023-05-17T06:49:02.613Z,13.19
2023-05-17T06:51:28.956Z,12.96
2023-05-17T06:53:55.133Z,13.09
2023-05-17T06:56:21.336Z,13.21
2023-05-17T06:58:47.577Z,13.59
2023-05-17T07:01:13.786Z,13.67
2023-05-17T07:03:40.131Z,13.57
2023-05-17T07:06:06.406Z,13.56
2023-05-17T07:08:32.640Z,13.62
2023-05-17T07:10:58.852Z,13.74
2023-05-17T07:13:25.070Z,13.79
2023-05-17T07:16:06.928Z,14.08
2023-05-17T07:18:36.032Z,13.88
2023-05-17T07:21:02.362Z,14.03
2023-05-17T07:23:28.603Z,13.82
2023-05-17T07:25:54.996Z,13.73
2023-05-17T07:28:21.364Z,13.70
2023-05-17T07:30:47.595Z,13.78
2023-05-17T07:33:16.954Z,14.06
2023-05-17T07:35:44.916Z,14.13
2023-05-17T07:38:11.155Z,14.11
2023-05-17T07:40:37.386Z,13.84
2023-05-17T07:43:03.617Z,14.00
2023-05-17T07:45:29.984Z,14.21
2023-05-17T07:47:58.698Z,14.21
2023-05-17T07:50:28.323Z,14.03
2023-05-17T07:52:54.528Z,14.08
2023-05-17T07:55:20.702Z,13.99
2023-05-17T07:57:46.896Z,13.89
2023-05-17T08:00:13.123Z,13.76
2023-05-17T08:02:39.396Z,13.67
2023-05-17T08:05:05.575Z,13.71
2023-05-17T08:07:31.749Z,13.76
2023-05-17T08:09:57.973Z,14.26
2023-05-17T08:12:24.469Z,15.16
2023-05-17T08:14:50.717Z,16.13
2023-05-17T08:17:16.955Z,16.51
2023-05-17T08:19:44.980Z,17.01
2023-05-17T08:22:11.249Z,17.28
2023-05-17T08:24:37.478Z,17.59
2023-05-17T08:27:03.725Z,17.39
2023-05-17T08:29:29.978Z,17.09
2023-05-17T08:31:57.361Z,16.36
2023-05-17T08:34:23.605Z,15.93
2023-05-17T08:36:49.861Z,15.69
2023-05-17T08:39:16.032Z,15.52
2023-05-17T08:41:42.205Z,15.11
2023-05-17T08:44:08.404Z,14.79
2023-05-17T08:46:34.587Z,14.63
2023-05-17T08:49:00.984Z,14.31
2023-05-17T08:51:29.335Z,14.28
2023-05-17T08:53:57.639Z,14.11
2023-05-17T08:56:23.872Z,14.33
2023-05-17T08:58:57.227Z,14.43
2023-05-17T09:01:26.002Z,14.36
2023-05-17T09:03:53.444Z,14.61
2023-05-17T09:06:19.717Z,14.56
2023-05-17T09:08:46.365Z,14.69
2023-05-17T09:11:12.629Z,14.62
2023-05-17T09:13:38.865Z,14.44
2023-05-17T09:16:05.056Z,14.49
2023-05-17T09:18:31.294Z,14.37
2023-05-17T09:20:57.554Z,14.29
2023-05-17T09:23:26.904Z,14.37
2023-05-17T09:25:53.115Z,14.21
2023-05-17T09:28:19.377Z,14.21
2023-05-17T09:30:45.767Z,13.99
2023-05-17T09:33:13.244Z,14.27
2023-05-17T09:35:41.373Z,14.26
2023-05-17T09:38:07.579Z,14.29
2023-05-17T09:40:33.776Z,14.36
2023-05-17T09:43:00.005Z,14.48
2023-05-17T09:45:26.438Z,14.49
2023-05-17T09:47:52.983Z,14.32
2023-05-17T09:50:19.377Z,14.32
2023-05-17T09:52:45.587Z,14.27
2023-05-17T09:55:11.756Z,14.27
2023-05-17T09:57:38.072Z,14.28
2023-05-17T10:00:04.379Z,14.28
2023-05-17T10:02:30.614Z,14.40
2023-05-17T10:04:56.961Z,14.48
2023-05-17T10:07:23.187Z,14.65
2023-05-17T10:09:49.388Z,14.77
2023-05-17T10:12:15.592Z,15.04
2023-05-17T10:14:41.863Z,15.37
2023-05-17T10:17:08.048Z,15.33
2023-05-17T10:19:34.358Z,15.31
2023-05-17T10:22:11.612Z,15.30
2023-05-17T10:24:46.862Z,15.09
2023-05-17T10:27:13.076Z,14.95
2023-05-17T10:29:39.261Z,15.01
2023-05-17T10:32:05.489Z,15.12
2023-05-17T10:34:31.718Z,15.34
2023-05-17T10:36:57.908Z,15.49
2023-05-17T10:39:24.101Z,15.61
2023-05-17T10:41:50.752Z,15.81
2023-05-17T10:44:18.218Z,15.50
2023-05-17T10:46:44.429Z,15.31
2023-05-17T10:49:10.655Z,15.21
2023-05-17T10:51:36.919Z,14.85
2023-05-17T10:54:03.196Z,14.98
2023-05-17T10:56:29.361Z,15.10
2023-05-17T10:58:55.589Z,15.10
2023-05-17T11:01:21.794Z,15.03
2023-05-17T11:03:47.998Z,15.03
2023-05-17T11:06:23.311Z,15.23
2023-05-17T11:08:50.540Z,15.38
2023-05-17T11:11:16.724Z,15.42
2023-05-17T11:13:42.916Z,15.42
2023-05-17T11:16:09.133Z,15.43
2023-05-17T11:21:02.171Z,15.96
2023-05-17T11:23:28.485Z,16.02
2023-05-17T11:25:55.076Z,15.99
2023-05-17T11:28:21.388Z,16.04
2023-05-17T11:30:47.654Z,16.06
2023-05-17T11:33:25.362Z,16.06
2023-05-17T11:35:58.906Z,15.90
2023-05-17T11:38:25.104Z,15.62
2023-05-17T11:40:51.285Z,15.61
2023-05-17T11:43:17.480Z,15.58
2023-05-17T11:45:43.745Z,15.78
2023-05-17T11:48:10.107Z,15.87
2023-05-17T11:50:36.405Z,15.86
2023-05-17T11:53:02.660Z,15.70
2023-05-17T11:55:29.106Z,15.63
2023-05-17T11:57:55.483Z,16.04
2023-05-17T12:00:24.720Z,16.91
2023-05-17T12:02:50.999Z,17.32
2023-05-17T12:05:17.275Z,18.20
2023-05-17T12:07:43.463Z,18.62
2023-05-17T12:13:00.123Z,19.00
2023-05-17T12:15:26.302Z,18.57
2023-05-17T12:17:52.540Z,17.96
2023-05-17T12:20:18.878Z,17.38
2023-05-17T12:22:45.153Z,17.14
2023-05-17T12:25:11.363Z,17.56
2023-05-17T12:27:37.601Z,17.68
2023-05-17T12:30:03.834Z,17.39
2023-05-17T12:32:30.098Z,16.88
2023-05-17T12:34:56.328Z,17.05
2023-05-17T12:37:22.575Z,17.90
2023-05-17T12:39:48.780Z,18.22
2023-05-17T12:42:14.956Z,18.80
2023-05-17T12:44:41.164Z,18.99
2023-05-17T12:47:07.327Z,19.01
2023-05-17T12:49:33.596Z,18.25
2023-05-17T12:51:59.847Z,18.46
2023-05-17T12:54:26.017Z,18.70
2023-05-17T12:56:52.262Z,18.75
2023-05-17T12:59:18.514Z,19.08
2023-05-17T13:01:44.821Z,19.09
2023-05-17T13:04:13.150Z,19.07
2023-05-17T13:06:39.499Z,19.22
2023-05-17T13:09:05.705Z,19.26
2023-05-17T13:11:31.932Z,19.30
2023-05-17T13:13:58.339Z,19.43
2023-05-17T13:16:24.605Z,19.33
2023-05-17T13:18:51.019Z,19.23
2023-05-17T13:21:17.373Z,18.66
2023-05-17T13:23:43.586Z,19.08
2023-05-17T13:26:09.753Z,19.00
2023-05-17T13:28:35.982Z,19.47
2023-05-17T13:31:02.243Z,19.88
2023-05-17T13:33:28.578Z,20.40
2023-05-17T13:35:54.903Z,20.66
2023-05-17T13:38:21.124Z,20.52
2023-05-17T13:40:47.327Z,20.65
2023-05-17T13:43:13.590Z,20.22
2023-05-17T13:45:39.779Z,19.36
2023-05-17T13:48:06.162Z,19.01
2023-05-17T13:50:32.426Z,18.50
2023-05-17T13:52:58.662Z,18.94
2023-05-17T13:55:24.865Z,19.56
2023-05-17T13:57:51.039Z,19.47
2023-05-17T14:00:17.278Z,19.30
2023-05-17T14:02:43.532Z,19.45
2023-05-17T14:05:09.733Z,19.69
2023-05-17T14:07:35.952Z,19.40
2023-05-17T14:10:02.201Z,19.14
2023-05-17T14:12:28.421Z,19.35
2023-05-17T14:14:54.632Z,19.69
2023-05-17T14:17:20.858Z,20.08
2023-05-17T14:19:47.341Z,20.11
2023-05-17T14:22:13.838Z,20.21
2023-05-17T14:24:40.047Z,20.20
2023-05-17T14:27:06.303Z,20.26
2023-05-17T14:29:32.537Z,20.74
2023-05-17T14:31:58.777Z,21.08
2023-05-17T14:34:25.128Z,21.64
2023-05-17T14:36:51.368Z,21.52
2023-05-17T14:39:17.579Z,21.14
2023-05-17T14:41:45.040Z,20.86
2023-05-17T14:44:11.437Z,20.94
2023-05-17T14:46:37.641Z,21.18
2023-05-17T14:49:03.911Z,20.87
2023-05-17T14:51:30.131Z,20.76
2023-05-17T14:53:56.345Z,20.73
2023-05-17T14:56:22.528Z,20.50
2023-05-17T14:58:48.932Z,20.00
2023-05-17T15:01:15.437Z,20.76
2023-05-17T15:03:41.679Z,20.59
2023-05-17T15:06:10.904Z,20.17
2023-05-17T15:08:38.184Z,20.52
2023-05-17T15:11:04.374Z,20.59
2023-05-17T15:13:30.627Z,19.98
2023-05-17T15:15:56.842Z,20.16
2023-05-17T15:21:03.217Z,20.40
2023-05-17T15:23:29.476Z,20.60
2023-05-17T15:25:55.732Z,20.08
2023-05-17T15:28:26.162Z,19.56
2023-05-17T15:36:37.471Z,19.52
2023-05-17T15:39:03.684Z,19.28
2023-05-17T15:41:30.333Z,19.52
2023-05-17T15:43:56.598Z,19.23
2023-05-17T15:46:22.836Z,18.62
2023-05-17T15:48:49.113Z,18.91
2023-05-17T15:51:15.379Z,19.99
2023-05-17T15:53:42.981Z,20.89
2023-05-17T15:56:09.201Z,21.49
2023-05-17T15:58:35.438Z,21.55
2023-05-17T16:01:01.812Z,20.60
2023-05-17T16:03:28.039Z,20.65
2023-05-17T16:05:54.296Z,21.18
2023-05-17T16:08:20.537Z,19.78
2023-05-17T16:10:46.695Z,18.85
2023-05-17T16:13:12.918Z,18.29
2023-05-17T16:15:39.121Z,17.87
2023-05-17T16:18:05.458Z,18.25
2023-05-17T16:20:31.663Z,19.26
2023-05-17T16:22:57.911Z,19.82
2023-05-17T16:25:24.082Z,19.73
2023-05-17T16:27:50.279Z,19.52
2023-05-17T16:30:16.490Z,19.38
2023-05-17T16:32:42.731Z,19.69
2023-05-17T16:35:08.976Z,19.73
2023-05-17T16:37:35.199Z,19.80
2023-05-17T16:40:01.464Z,20.10
2023-05-17T16:42:27.729Z,20.21
2023-05-17T16:44:53.976Z,19.46
2023-05-17T16:47:21.628Z,19.12
2023-05-17T16:52:34.284Z,19.05
2023-05-17T16:55:00.627Z,18.79
2023-05-17T16:57:26.864Z,18.41
2023-05-17T17:02:43.683Z,18.01
2023-05-17T17:05:09.930Z,17.62
2023-05-17T17:07:36.175Z,17.18
2023-05-17T17:10:02.430Z,17.03
2023-05-17T17:12:28.651Z,16.86
2023-05-17T17:14:54.848Z,16.79
2023-05-17T17:17:21.099Z,16.81
2023-05-17T17:19:47.307Z,16.82
2023-05-17T17:22:13.545Z,16.81
2023-05-17T17:24:39.745Z,16.69
2023-05-17T17:27:05.995Z,16.62
2023-05-17T17:29:32.172Z,16.57
2023-05-17T17:31:58.416Z,16.44
2023-05-17T17:34:24.627Z,16.41
2023-05-17T17:36:50.820Z,16.39
2023-05-17T17:39:17.000Z,16.33
2023-05-17T17:41:43.261Z,16.27
2023-05-17T17:44:09.514Z,16.30
2023-05-17T17:46:35.786Z,16.28
2023-05-17T17:49:02.071Z,16.22
2023-05-17T17:51:28.241Z,16.19
2023-05-17T17:53:54.452Z,16.14
2023-05-17T17:56:20.677Z,16.09
2023-05-17T17:58:46.894Z,16.04
2023-05-17T18:01:13.090Z,15.97
2023-05-17T18:03:39.345Z,15.92
2023-05-17T18:06:05.569Z,15.92
2023-05-17T18:08:34.740Z,15.85
2023-05-17T18:11:00.929Z,15.77
2023-05-17T18:13:27.169Z,15.75
2023-05-17T18:15:53.374Z,15.63
2023-05-17T18:18:19.618Z,15.52
2023-05-17T18:20:45.798Z,15.52
2023-05-17T18:23:12.006Z,15.46
2023-05-17T18:25:38.254Z,15.41
2023-05-17T18:28:04.823Z,15.34
2023-05-17T18:30:32.064Z,15.29
2023-05-17T18:32:58.276Z,15.21
2023-05-17T18:35:24.525Z,15.08
2023-05-17T18:37:50.730Z,15.07
2023-05-17T18:40:16.931Z,14.97
2023-05-17T18:42:43.128Z,14.93
2023-05-17T18:45:09.351Z,14.85
2023-05-17T18:47:35.661Z,14.81
2023-05-17T18:50:01.865Z,14.76
2023-05-17T18:52:28.112Z,14.68
2023-05-17T18:54:54.353Z,14.69
2023-05-17T18:57:22.971Z,14.67
2023-05-17T18:59:49.455Z,14.65
2023-05-17T19:02:15.891Z,14.63
2023-05-17T19:04:42.122Z,14.58
2023-05-17T19:07:08.327Z,14.49
2023-05-17T19:09:34.580Z,14.47
2023-05-17T19:12:00.951Z,14.38
2023-05-17T19:14:27.210Z,14.30
2023-05-17T19:16:53.449Z,14.30
2023-05-17T19:19:19.798Z,14.28
2023-05-17T19:21:46.101Z,14.22
2023-05-17T19:24:12.366Z,14.14
2023-05-17T19:26:38.611Z,14.09
2023-05-17T19:29:04.813Z,14.07
2023-05-17T19:31:31.043Z,14.00
2023-05-17T19:33:57.450Z,13.96
2023-05-17T19:36:23.661Z,13.91
2023-05-17T19:38:51.852Z,13.82
2023-05-17T19:41:18.331Z,13.72
2023-05-17T19:43:44.512Z,13.67
2023-05-17T19:46:10.811Z,13.57
2023-05-17T19:48:37.072Z,13.48
2023-05-17T19:51:03.305Z,13.34
2023-05-17T19:53:40.391Z,13.23
2023-05-17T19:56:14.407Z,13.14
2023-05-17T19:58:40.759Z,13.04
2023-05-17T20:01:06.972Z,12.96
2023-05-17T20:03:33.251Z,12.87
2023-05-17T20:05:59.535Z,12.80
2023-05-17T20:08:25.747Z,12.77
2023-05-17T20:10:52.073Z,12.72
2023-05-17T20:13:19.888Z,12.67
2023-05-17T20:15:46.149Z,12.62
2023-05-17T20:18:14.089Z,12.54
2023-05-17T20:20:40.351Z,12.61
2023-05-17T20:23:06.583Z,12.63
2023-05-17T20:25:32.781Z,12.68
2023-05-17T20:27:59.002Z,12.62
2023-05-17T20:30:25.169Z,12.52
2023-05-17T20:33:01.984Z,12.36
2023-05-17T20:35:29.215Z,12.29
2023-05-17T20:37:55.458Z,12.22
2023-05-17T20:40:21.687Z,12.13
2023-05-17T20:42:47.956Z,12.01
2023-05-17T20:45:14.803Z,12.00
2023-05-17T20:47:41.549Z,12.00
2023-05-17T20:50:07.773Z,11.99
2023-05-17T20:52:39.556Z,11.94
2023-05-17T20:55:06.102Z,11.93
2023-05-17T20:57:32.346Z,11.93
2023-05-17T20:59:58.625Z,11.85
2023-05-17T21:02:24.914Z,11.81
2023-05-17T21:04:51.179Z,11.80
2023-05-17T21:07:17.382Z,11.78
2023-05-17T21:09:43.608Z,12.04
2023-05-17T21:12:09.850Z,12.11
2023-05-17T21:14:36.104Z,12.44
2023-05-17T21:17:02.347Z,12.64
2023-05-17T21:19:28.555Z,12.62
2023-05-17T21:21:54.719Z,12.63
2023-05-17T21:24:20.914Z,12.64
2023-05-17T21:26:47.118Z,12.61
2023-05-17T21:29:13.378Z,12.62
2023-05-17T21:31:39.649Z,12.66
2023-05-17T21:34:05.996Z,12.71
2023-05-17T21:36:32.238Z,12.68
2023-05-17T21:38:58.430Z,12.63
2023-05-17T21:41:24.631Z,12.57
2023-05-17T21:43:50.885Z,12.73
2023-05-17T21:46:17.143Z,12.78
2023-05-17T21:48:43.394Z,12.71
2023-05-17T21:51:09.579Z,12.72
2023-05-17T21:53:35.779Z,12.67
2023-05-17T21:56:03.179Z,12.73
2023-05-17T21:58:29.644Z,12.80
2023-05-17T22:00:55.864Z,12.80
2023-05-17T22:03:22.243Z,12.80
2023-05-17T22:05:48.572Z,12.73
2023-05-17T22:08:14.755Z,12.70
2023-05-17T22:10:40.964Z,12.74
2023-05-17T22:13:07.185Z,12.74
2023-05-17T22:15:33.424Z,12.71
2023-05-17T22:17:59.697Z,12.55
2023-05-17T22:20:25.924Z,12.39
2023-05-17T22:22:52.118Z,12.30
2023-05-17T22:25:18.290Z,12.20
2023-05-17T22:27:44.530Z,12.10
2023-05-17T22:30:10.778Z,12.05
2023-05-17T22:32:36.972Z,12.01
2023-05-17T22:35:03.151Z,12.00
2023-05-17T22:37:29.399Z,12.04
2023-05-17T22:39:55.621Z,12.14
2023-05-17T22:42:21.875Z,12.22
2023-05-17T22:44:48.058Z,12.40
2023-05-17T22:47:14.843Z,12.43
2023-05-17T22:49:41.521Z,12.50
2023-05-17T22:52:07.794Z,12.51
2023-05-17T22:54:34.072Z,12.46
2023-05-17T22:57:00.307Z,12.39
2023-05-17T22:59:26.504Z,12.41
2023-05-17T23:01:52.858Z,12.47
2023-05-17T23:04:19.220Z,12.40
2023-05-17T23:06:45.421Z,12.43
2023-05-17T23:09:11.698Z,12.33
2023-05-17T23:11:37.905Z,12.32
2023-05-17T23:14:04.112Z,12.19
2023-05-17T23:16:30.332Z,12.14
2023-05-17T23:18:56.585Z,12.03
2023-05-17T23:21:22.799Z,11.97
2023-05-17T23:23:49.044Z,11.86
2023-05-17T23:26:15.250Z,11.79
2023-05-17T23:28:41.417Z,11.78
2023-05-17T23:31:07.716Z,11.76
2023-05-17T23:33:34.008Z,11.71
2023-05-17T23:36:00.228Z,11.69
2023-05-17T23:38:26.408Z,11.70
2023-05-17T23:40:52.636Z,11.68
2023-05-17T23:43:18.833Z,11.67
2023-05-17T23:45:45.091Z,11.70
2023-05-17T23:48:11.362Z,11.90
2023-05-17T23:50:37.622Z,11.95
2023-05-17T23:53:03.822Z,11.96
2023-05-17T23:55:30.321Z,12.03
2023-05-17T23:57:56.678Z,12.08
